Latest Weather Observations for Blackwater Airport

IDQ60801

Issued at 4:05 pm EST Thursday 2 October 2014 (issued every 30 minutes, with the page automatically refreshed every 10 minutes)

About weather observations | Map of weather stations | Latest weather observations for QLD | Other Formats
Station Details ID: 035134 Name: BLACKWATER AIRPORT Lat: -23.60 Lon: 148.81 Height: 192.95 m
Data from the previous 72 hours. | See also: Recent months at Blackwater Airport
Date/Time
EST
Temp
°C
App
Temp
°C
Dew
Point
Rel
Hum
%
Delta-T
°C
Wind Press
QNH
hPa
Press
MSL
hPa
Rain
since 9 am
mm
Dir
 
Spd
km/h
Gust
km/h
Spd
kts
Gust
kts
02/04:00pm 30.3 27.6 13.6 36 10.1 NE 20 28 11 15 1015.4 1014.4 0.0
02/03:30pm 29.8 27.7 12.3 34 10.3 ENE 15 30 8 16 1015.5 1014.5 0.0
02/03:00pm 29.8 27.9 11.8 33 10.5 E 13 22 7 12 1015.7 1014.7 0.0
02/02:30pm 29.7 26.9 12.6 35 10.1 E 19 28 10 15 1015.9 1014.9 0.0
02/02:00pm 28.9 26.8 12.3 36 9.8 E 15 20 8 11 1016.2 1015.2 0.0
02/01:30pm 29.0 26.3 11.6 34 10.1 E 17 24 9 13 1016.7 1015.7 0.0
02/01:00pm 28.6 25.1 8.8 29 11.0 E 17 28 9 15 1017.2 1016.3 0.0
02/12:30pm 28.5 24.8 10.2 32 10.4 ENE 20 28 11 15 1017.6 1016.7 0.0
02/12:00pm 28.7 24.9 9.9 31 10.6 ENE 20 30 11 16 1017.9 1017.0 0.0
02/11:30am 27.8 23.6 9.6 32 10.2 ENE 22 35 12 19 1018.4 1017.5 0.0
02/11:00am 27.6 23.5 8.5 30 10.5 ENE 20 28 11 15 1018.7 1017.8 0.0
02/10:30am 26.9 21.9 7.9 30 10.3 E 24 35 13 19 1018.9 1018.0 0.0
02/10:00am 26.2 20.9 6.8 29 10.2 ENE 24 37 13 20 1019.0 1018.1 0.0
02/09:30am 26.8 22.1 6.2 27 10.8 ENE 20 35 11 19 1019.0 1018.1 0.0
02/09:00am 26.7 21.8 5.1 25 11.1 ENE 20 28 11 15 1019.1 1018.2 0.0
02/08:30am 25.5 21.8 4.6 26 10.6 ESE 13 20 7 11 1019.2 1018.3 0.0
02/08:00am 23.8 19.6 3.7 27 9.9 S 15 20 8 11 1019.0 1018.1 0.0
02/07:30am 23.3 18.8 4.3 29 9.4 S 17 22 9 12 1018.5 1017.6 0.0
02/07:00am 21.7 19.0 7.2 39 7.5 SSW 11 15 6 8 1018.2 1017.3 0.0
02/06:30am 19.1 17.5 10.1 56 4.9 SW 9 13 5 7 1017.9 1017.0 0.0
02/06:00am 17.7 16.1 10.3 62 4.0 SSW 9 13 5 7 1017.5 1016.6 0.0
02/05:30am 18.6 17.6 10.4 59 4.4 E 6 9 3 5 1017.2 1016.3 0.0
02/05:00am 18.4 17.0 9.7 57 4.6 ESE 7 11 4 6 1016.9 1015.9 0.0
02/04:30am 20.3 17.2 8.9 48 6.1 SSE 15 20 8 11 1016.3 1015.3 0.0
02/04:00am 18.3 17.4 11.4 64 3.8 S 7 9 4 5 1016.0 1015.0 0.0
02/03:30am 18.8 18.2 12.3 66 3.6 SSW 7 11 4 6 1015.7 1014.7 0.0
02/03:00am 19.7 18.9 11.7 60 4.5 ESE 7 9 4 5 1015.6 1014.6 0.0
02/02:30am 20.1 18.0 11.3 57 4.9 SE 13 15 7 8 1015.9 1014.9 0.0
02/02:00am 19.9 17.7 12.2 61 4.3 SSE 15 32 8 17 1016.1 1015.1 0.0
02/01:30am 18.7 17.7 12.2 66 3.6 SSE 9 17 5 9 1015.9 1014.9 0.0
02/01:00am 18.1 17.6 11.9 67 3.4 SE 6 7 3 4 1015.9 1014.9 0.0
02/12:30am 18.8 18.0 10.9 60 4.3 E 6 7 3 4 1015.9 1014.9 0.0
02/12:00am 19.6 20.0 11.1 58 4.7 E 0 0 0 0 1016.1 1015.1 0.0
 
Date/Time
EST
Temp
°C
App
Temp
°C
Dew
Point
Rel
Hum
%
Delta-T
°C
Wind Press
QNH
hPa
Press
MSL
hPa
Rain
since 9 am
mm
Dir
 
Spd
km/h
Gust
km/h
Spd
kts
Gust
kts
01/11:30pm 18.3 18.5 10.7 61 4.1 CALM 0 0 0 0 1016.0 1015.0 0.0
01/11:00pm 18.8 18.6 10.4 58 4.5 ESE 2 6 1 3 1016.1 1015.1 0.0
01/10:30pm 20.4 20.8 11.1 55 5.2 CALM 0 0 0 0 1016.1 1015.1 0.0
01/10:00pm 20.4 20.5 10.2 52 5.6 CALM 0 0 0 0 1016.2 1015.2 0.0
01/09:30pm 21.3 19.8 9.2 46 6.5 ENE 7 9 4 5 1016.1 1015.1 0.0
01/09:00pm 22.6 21.1 9.0 42 7.3 N 7 9 4 5 1016.0 1015.0 0.0
01/08:30pm 22.8 21.0 9.6 43 7.2 N 9 9 5 5 1016.1 1015.1 0.0
01/08:00pm 23.7 21.9 9.3 40 7.8 NNW 9 11 5 6 1016.1 1015.1 0.0
01/07:30pm 23.3 21.3 8.6 39 7.9 N 9 11 5 6 1016.0 1015.0 0.0
01/07:00pm 25.3 24.1 9.6 37 8.7 WSW 6 7 3 4 1015.8 1014.8 0.0
01/06:30pm 26.1 24.2 9.0 34 9.4 N 9 13 5 7 1015.4 1014.4 0.0
01/06:00pm 28.1 26.7 9.4 31 10.5 NNW 7 9 4 5 1015.1 1014.1 0.0
01/05:30pm 29.7 28.2 9.3 28 11.5 NW 7 9 4 5 1014.8 1013.8 0.0
01/05:00pm 30.7 28.4 9.0 26 12.2 NW 11 15 6 8 1014.8 1013.8 0.0
01/04:30pm 31.2 28.8 8.8 25 12.6 NW 11 15 6 8 1014.8 1013.8 0.0
01/04:00pm 31.4 29.3 9.6 26 12.4 WNW 11 17 6 9 1014.7 1013.7 0.0
01/03:30pm 31.0 29.5 9.3 26 12.3 ENE 7 13 4 7 1014.9 1013.9 0.0
01/03:00pm 31.0 29.5 10.4 28 11.9 ENE 9 13 5 7 1015.2 1014.2 0.0
01/02:30pm 30.6 29.7 10.5 29 11.6 SSW 6 11 3 6 1015.6 1014.6 0.0
01/02:00pm 30.1 29.0 10.1 29 11.4 N 6 13 3 7 1016.0 1015.0 0.0
01/01:30pm 29.9 28.4 10.5 30 11.1 N 9 15 5 8 1016.7 1015.7 0.0
01/01:00pm 28.6 26.1 9.8 31 10.6 WSW 13 24 7 13 1017.3 1016.4 0.0
01/12:30pm 28.3 26.8 10.5 33 10.1 W 9 15 5 8 1017.8 1016.9 0.0
01/12:00pm 27.2 25.5 11.2 36 9.2 WSW 11 20 6 11 1018.3 1017.4 0.0
01/11:30am 26.5 25.2 11.4 39 8.7 NW 9 13 5 7 1018.8 1017.9 0.0
01/11:00am 25.4 24.5 11.2 41 8.1 W 7 17 4 9 1019.3 1018.4 0.0
01/10:30am 25.2 24.0 12.8 46 7.2 NW 11 19 6 10 1019.8 1018.8 0.0
01/10:00am 23.6 22.2 12.3 49 6.5 NW 11 17 6 9 1020.1 1019.1 0.0
01/09:30am 23.0 21.9 12.0 50 6.3 N 9 17 5 9 1020.5 1019.8 0.0
01/09:00am 21.9 20.9 12.2 54 5.5 WNW 9 15 5 8 1020.7 1020.0 0.0
01/08:30am 21.3 20.1 12.7 58 4.9 N 11 15 6 8 1020.6 1019.9 0.0
01/08:00am 20.0 19.1 12.7 63 4.1 N 9 15 5 8 1020.6 1019.9 0.0
01/07:30am 19.2 18.2 13.4 69 3.3 N 11 15 6 8 1020.5 1019.8 0.0
01/07:00am 17.4 16.7 13.1 76 2.4 NNE 9 11 5 6 1020.2 1019.5 0.0
01/06:30am 15.2 14.6 12.3 83 1.6 NE 7 9 4 5 1020.0 1019.3 0.0
01/06:00am 14.0 12.8 11.5 85 1.3 NNE 9 9 5 5 1019.8 1019.1 0.0
01/05:30am 14.1 12.8 11.4 84 1.5 NE 9 11 5 6 1019.6 1018.9 0.0
01/05:00am 14.3 13.1 11.5 83 1.5 NE 9 11 5 6 1019.3 1018.7 0.0
01/04:30am 14.2 12.6 11.4 83 1.5 NE 11 11 6 6 1018.9 1018.2 0.0
01/04:00am 14.2 12.6 11.4 83 1.5 NE 11 13 6 7 1018.6 1017.9 0.0
01/03:30am 14.5 12.8 11.3 81 1.7 NE 11 13 6 7 1018.5 1017.8 0.0
01/03:00am 14.6 12.9 11.2 80 1.8 ENE 11 11 6 6 1018.5 1017.8 0.0
01/02:30am 15.1 13.9 11.7 80 1.9 NE 9 11 5 6 1018.6 1017.9 0.0
01/02:00am 15.0 13.4 11.6 80 1.8 NE 11 11 6 6 1018.8 1018.1 0.0
01/01:30am 15.3 14.2 11.9 80 1.9 NE 9 11 5 6 1019.1 1018.4 0.0
01/01:00am 15.3 13.6 11.3 77 2.2 NE 11 13 6 7 1019.4 1018.8 0.0
01/12:30am 15.7 14.1 11.5 76 2.3 NE 11 11 6 6 1019.7 1019.0 0.0
01/12:00am 16.4 14.5 11.8 74 2.5 ENE 13 15 7 8 1019.9 1019.2 0.0
 
Date/Time
EST
Temp
°C
App
Temp
°C
Dew
Point
Rel
Hum
%
Delta-T
°C
Wind Press
QNH
hPa
Press
MSL
hPa
Rain
since 9 am
mm
Dir
 
Spd
km/h
Gust
km/h
Spd
kts
Gust
kts
30/11:30pm 16.9 14.6 11.8 72 2.8 ENE 15 17 8 9 1019.9 1019.2 0.0
30/11:00pm 17.0 15.1 11.9 72 2.8 ENE 13 17 7 9 1019.9 1019.2 0.0
30/10:30pm 17.4 15.8 11.7 69 3.1 ENE 11 15 6 8 1019.9 1019.2 0.0
30/10:00pm 18.0 16.4 11.6 66 3.5 NE 11 15 6 8 1019.8 1019.1 0.0
30/09:30pm 19.3 17.4 11.8 62 4.2 NE 13 19 7 10 1019.7 1019.0 0.0
30/09:00pm 19.4 17.5 11.7 61 4.3 NE 13 19 7 10 1019.2 1018.6 0.0
30/08:30pm 21.0 18.2 11.3 54 5.4 NE 17 24 9 13 1018.9 1018.2 0.0
30/08:00pm 21.1 18.5 10.6 51 5.8 ENE 15 17 8 9 1018.5 1017.8 0.0
30/07:30pm 22.0 19.3 10.5 48 6.4 ENE 15 17 8 9 1018.0 1017.3 0.0
30/07:00pm 21.9 19.9 10.1 47 6.5 ENE 11 13 6 7 1017.7 1017.0 0.0
30/06:30pm 22.8 21.0 9.6 43 7.2 NE 9 9 5 5 1017.3 1016.6 0.0
30/06:00pm 24.0 21.8 9.2 39 8.1 NNE 11 13 6 7 1016.9 1016.2 0.0
30/05:30pm 26.5 23.9 9.4 34 9.5 NNE 13 19 7 10 1016.7 1016.0 0.0
30/05:00pm 27.5 24.9 9.3 32 10.1 NE 13 17 7 9 1016.5 1015.8 0.0
30/04:30pm 27.8 24.6 8.6 30 10.6 NE 15 24 8 13 1016.3 1015.6 0.0
30/04:00pm 28.0 24.4 8.3 29 10.8 ENE 17 24 9 13 1016.5 1015.8 0.0
30/03:30pm 28.7 25.6 8.9 29 11.0 E 15 24 8 13 1016.5 1015.8 0.0
30/03:00pm 28.4 24.9 8.7 29 10.9 NE 17 26 9 14 1016.7 1016.0 0.0
30/02:30pm 28.3 25.3 7.5 27 11.3 NE 13 26 7 14 1017.0 1016.3 0.0
30/02:00pm 28.1 24.5 8.4 29 10.8 ENE 17 26 9 14 1017.5 1016.8 0.0
30/01:30pm 27.8 25.1 9.1 31 10.4 NE 13 24 7 13 1017.9 1017.2 0.0
30/01:00pm 27.3 23.5 9.2 32 10.0 NE 19 28 10 15 1018.5 1017.8 0.0
30/12:30pm 27.0 23.8 9.8 34 9.6 NE 17 24 9 13 1019.1 1018.4 0.0
30/12:00pm 26.6 23.8 9.9 35 9.3 ENE 15 26 8 14 1019.8 1019.1 0.0
30/11:30am 26.2 24.4 10.8 38 8.7 NNE 11 19 6 10 1020.3 1019.6 0.0
30/11:00am 25.1 23.0 11.3 42 7.8 NE 13 20 7 11 1021.0 1020.3 0.0
30/10:30am 24.8 23.2 11.7 44 7.5 NNE 11 24 6 13 1021.4 1020.7 0.0
30/10:00am 24.3 22.3 11.6 45 7.2 NNE 13 24 7 13 1021.7 1021.0 0.0
30/09:30am 23.0 20.8 10.8 46 6.8 NNE 13 32 7 17 1022.0 1021.3 0.0
30/09:00am 22.6 20.7 11.7 50 6.1 N 13 20 7 11 1022.1 1021.4 0.0
30/08:30am 20.9 19.5 12.1 57 5.0 NNE 11 17 6 9 1022.1 1021.4 0.0
30/08:00am 19.5 18.7 13.0 66 3.7 NNE 9 15 5 8 1021.9 1021.2 0.0
30/07:30am 18.6 17.9 13.2 71 3.1 NNE 9 13 5 7 1021.6 1020.9 0.0
30/07:00am 16.2 16.2 13.5 84 1.5 N 6 7 3 4 1021.4 1020.7 0.0
30/06:30am 14.4 14.5 12.8 90 0.9 NNE 4 6 2 3 1021.1 1020.4 0.0
30/06:00am 13.6 14.3 12.3 92 0.7 CALM 0 0 0 0 1020.7 1020.0 0.0
30/05:30am 13.4 12.9 12.0 91 0.8 N 6 7 3 4 1020.3 1019.6 0.0
30/05:00am 14.0 13.5 12.7 92 0.7 NE 7 9 4 5 1019.8 1019.1 0.0
30/04:30am 13.9 13.4 12.8 93 0.6 NE 7 9 4 5 1019.4 1018.8 0.0
30/04:00am 13.6 13.0 12.2 91 0.8 NNE 7 9 4 5 1019.3 1018.7 0.0
30/03:30am 14.6 13.9 13.1 91 0.8 NE 9 11 5 6 1019.1 1018.4 0.0
30/03:00am 14.6 13.9 13.1 91 0.8 NE 9 11 5 6 1019.2 1018.6 0.0
30/02:30am 15.0 14.0 13.4 90 0.9 NE 11 13 6 7 1019.3 1018.7 0.0
30/02:00am 15.1 14.1 13.3 89 1.0 NE 11 13 6 7 1019.2 1018.6 0.0
30/01:30am 15.5 14.9 13.5 88 1.1 NE 9 11 5 6 1019.4 1018.8 0.0
30/01:00am 15.8 14.9 13.6 87 1.2 NE 11 13 6 7 1019.4 1018.8 0.0
30/12:30am 16.2 15.3 13.7 85 1.4 NE 11 13 6 7 1019.7 1019.0 0.0
30/12:00am 17.1 15.6 14.2 83 1.7 ENE 15 17 8 9 1019.9 1019.2 0.0
 
Date/Time
EST
Temp
°C
App
Temp
°C
Dew
Point
Rel
Hum
%
Delta-T
°C
Wind Press
QNH
hPa
Press
MSL
hPa
Rain
since 9 am
mm
Dir
 
Spd
km/h
Gust
km/h
Spd
kts
Gust
kts
29/11:30pm 16.8 15.5 13.7 82 1.8 ENE 13 13 7 7 1020.0 1019.3 0.0
29/11:00pm 18.0 16.8 14.1 78 2.2 ENE 13 17 7 9 1020.1 1019.4 0.0
29/10:30pm 18.5 17.0 14.2 76 2.5 ENE 15 19 8 10 1020.1 1019.4 0.0
29/10:00pm 19.2 17.9 14.7 75 2.6 ENE 15 19 8 10 1020.2 1019.5 0.0
29/09:30pm 19.1 17.6 14.1 73 2.9 ENE 15 17 8 9 1020.1 1019.4 0.0
29/09:00pm 18.4 17.1 12.6 69 3.3 NE 11 15 6 8 1019.6 1018.9 0.0
29/08:30pm 19.1 16.6 11.2 60 4.4 NE 15 20 8 11 1019.2 1018.6 0.0
29/08:00pm 20.2 18.8 10.9 55 5.1 NE 9 13 5 7 1018.7 1018.0 0.0
29/07:30pm 20.5 18.5 10.3 52 5.6 NE 11 11 6 6 1018.2 1017.5 0.0
29/07:00pm 21.7 19.3 9.9 47 6.4 ENE 13 13 7 7 1017.9 1017.2 0.0
29/06:30pm 22.8 20.0 8.5 40 7.7 ENE 13 13 7 7 1017.5 1016.8 0.0
29/06:00pm 24.7 21.2 8.6 36 8.7 ENE 17 20 9 11 1017.1 1016.4 0.0
29/05:30pm 26.1 22.8 9.4 35 9.2 ENE 17 24 9 13 1016.8 1016.1 0.0
29/05:00pm 27.2 24.8 10.0 34 9.7 ENE 13 19 7 10 1016.5 1015.8 0.0
29/04:30pm 27.5 24.0 10.2 34 9.8 E 19 26 10 14 1016.4 1015.7 0.0

Other Formats:

Comma delimited format used in spreadsheet applications
http://www.bom.gov.au/fwo/IDQ60801/IDQ60801.94398.axf

JavaScript Object Notation format (JSON) in row-major order
http://www.bom.gov.au/fwo/IDQ60801/IDQ60801.94398.json